ME88 weather

Morrison's Airport
Perry, Maine, United States

Public forecast

Using degrees Fahrenheit for public forecast. Weather courtesy of forecast.io.

METAR (pilot weather report)

Closest report is Saint John Airport, 53.8 nm (99.6 km) ENE. Retrieved 2019/08/22 16:22 UTC (19 minutes ago):

CYSJ 221622Z 22011KT 2 1/4SM BR OVC004 20/19 A2982 RMK SF8 SLP098 DENSITY ALT 1200FT

TAF (pilot weather forecast)

Closest forecast is Saint John Airport, 53.8 nm (99.6 km) ENE. Retrieved 2019/08/22 12:45 UTC (4 hours ago):

TAF CYSJ 221141Z 2212/2224 19010KT 1/4SM -DZ FG VV001 TEMPO 2212/2214 6SM BR OVC004 FM221400 20010KT P6SM BKN004 TEMPO 2214/2218 SCT004 FM221800 19012G22KT P6SM SCT004 FM222300 20008KT 6SM BR BKN004 RMK NXT FCST BY 221800Z